Fairfax, IA (52228)

2:23 PM CST on December 07, 2016 (GMT -0600)
Rockhurst Dr SW - Stoney Point | | Change Station

Elev 830 ft 41.97 °N, 91.76 °W | Updated 1 minute ago

Clear
Clear
23.4 °F
Feels Like 8 °F
N
23.7
Wind Variable Wind from WSW
Gusts 25.0 mph

Today
High -- | Low -- °F
--% Chance of Precip.
Yesterday
High -- | Low -- °F
Precip. -- in
Pressure 30.20 in
Visibility 10.0 miles
Clouds Clear
Windchill 8 °F
Dew Point 3 °F
Humidity 41%
Rainfall 0.00 in
Snow Depth Not available.
7:21 AM 4:35 PM
First Quarter, 55% visible
METAR KCID 071952Z 27016KT 10SM CLR M06/M09 A3016 RMK AO2 SLP225 T10561089
Pressure 30.20 in
Visibility 10.0 miles
Clouds Clear
Windchill 8 °F
Dew Point 3 °F
Humidity 41%
Rainfall 0.00 in
Snow Depth Not available.
7:21 AM 4:35 PM
First Quarter, 55% visible
METAR KCID 071952Z 27016KT 10SM CLR M06/M09 A3016 RMK AO2 SLP225 T10561089

10-Day Weather Forecast

Almanac

Astronomy

Dec. 07, 2016 Rise Set
Actual Time
Civil Twilight
Nautical Twilight
Astronomical Twilight
Moon
Length of Visible Light
Length of Day
Tomorrow will be .
, % of the Moon is Illuminated

Today's Extremes

State Highs State Lows

Community

WunderPhotos

Upload Photos

1,956,164 photos uploaded!

WunderBlog® & News

Nearby

Air Quality

  Air Quality AQ Index Pollutant
Not available.

Snow Depth

Station Depth Elevation

Earthquake Activity

City Distance Mag. Time & Date
Minimum magnitude displayed is 2.5.

Coastal Water Temperatures

Place Temperature

Stations

Nearby Weather Stations

Station Location Temp. Windchill Dew Point Humidity Wind Precip. Elev Updated Type
                   

Watches & Warnings

There are currently no watches in effect.